sensor_id;sensor_type;location;lat;lon;timestamp;temperature;humidity
44182;DHT22;30436;48.888;9.202;2022-08-05T00:00:46;30.00;64.70
44182;DHT22;30436;48.888;9.202;2022-08-05T00:03:11;29.80;63.50
44182;DHT22;30436;48.888;9.202;2022-08-05T00:05:37;29.80;64.60
44182;DHT22;30436;48.888;9.202;2022-08-05T00:08:03;29.70;63.00
44182;DHT22;30436;48.888;9.202;2022-08-05T00:10:28;29.60;63.60
44182;DHT22;30436;48.888;9.202;2022-08-05T00:12:54;29.50;65.40
44182;DHT22;30436;48.888;9.202;2022-08-05T00:15:19;29.50;64.00
44182;DHT22;30436;48.888;9.202;2022-08-05T00:17:45;29.30;64.90
44182;DHT22;30436;48.888;9.202;2022-08-05T00:20:11;29.30;65.20
44182;DHT22;30436;48.888;9.202;2022-08-05T00:22:36;29.50;66.60
44182;DHT22;30436;48.888;9.202;2022-08-05T00:25:03;29.50;65.20
44182;DHT22;30436;48.888;9.202;2022-08-05T00:27:29;29.60;64.20
44182;DHT22;30436;48.888;9.202;2022-08-05T00:29:55;29.70;66.70
44182;DHT22;30436;48.888;9.202;2022-08-05T00:32:21;29.70;63.50
44182;DHT22;30436;48.888;9.202;2022-08-05T00:34:46;29.70;63.40
44182;DHT22;30436;48.888;9.202;2022-08-05T00:37:12;29.60;65.10
44182;DHT22;30436;48.888;9.202;2022-08-05T00:39:38;29.70;66.40
44182;DHT22;30436;48.888;9.202;2022-08-05T00:42:04;29.90;67.00
44182;DHT22;30436;48.888;9.202;2022-08-05T00:44:30;29.80;65.90
44182;DHT22;30436;48.888;9.202;2022-08-05T00:46:56;29.60;63.40
44182;DHT22;30436;48.888;9.202;2022-08-05T00:49:21;29.40;64.00
44182;DHT22;30436;48.888;9.202;2022-08-05T00:51:47;29.30;64.80
44182;DHT22;30436;48.888;9.202;2022-08-05T00:54:13;29.30;68.50
44182;DHT22;30436;48.888;9.202;2022-08-05T00:56:39;29.30;63.70
44182;DHT22;30436;48.888;9.202;2022-08-05T00:59:05;29.20;60.70
44182;DHT22;30436;48.888;9.202;2022-08-05T01:01:30;29.20;60.40
44182;DHT22;30436;48.888;9.202;2022-08-05T01:03:56;29.00;59.50
44182;DHT22;30436;48.888;9.202;2022-08-05T01:06:22;29.00;58.60
44182;DHT22;30436;48.888;9.202;2022-08-05T01:08:47;28.90;58.70
44182;DHT22;30436;48.888;9.202;2022-08-05T01:11:21;29.00;58.90
44182;DHT22;30436;48.888;9.202;2022-08-05T01:13:54;28.90;58.90
44182;DHT22;30436;48.888;9.202;2022-08-05T01:16:33;28.90;59.00
44182;DHT22;30436;48.888;9.202;2022-08-05T01:19:22;28.90;59.70
44182;DHT22;30436;48.888;9.202;2022-08-05T01:25:02;28.80;60.50
44182;DHT22;30436;48.888;9.202;2022-08-05T01:27:55;28.70;59.80
44182;DHT22;30436;48.888;9.202;2022-08-05T01:30:26;28.80;60.80
44182;DHT22;30436;48.888;9.202;2022-08-05T01:32:55;28.80;62.40
44182;DHT22;30436;48.888;9.202;2022-08-05T01:35:25;28.80;62.20
44182;DHT22;30436;48.888;9.202;2022-08-05T01:37:54;28.90;62.00
44182;DHT22;30436;48.888;9.202;2022-08-05T01:40:25;28.80;62.30
44182;DHT22;30436;48.888;9.202;2022-08-05T01:42:54;28.80;63.50
44182;DHT22;30436;48.888;9.202;2022-08-05T01:45:21;28.90;62.30
44182;DHT22;30436;48.888;9.202;2022-08-05T01:47:48;28.80;61.60
44182;DHT22;30436;48.888;9.202;2022-08-05T01:50:24;28.70;62.80
44182;DHT22;30436;48.888;9.202;2022-08-05T01:52:52;28.60;63.00
44182;DHT22;30436;48.888;9.202;2022-08-05T01:55:21;28.50;66.20
44182;DHT22;30436;48.888;9.202;2022-08-05T01:57:49;28.60;65.10
44182;DHT22;30436;48.888;9.202;2022-08-05T02:00:16;28.60;67.20
44182;DHT22;30436;48.888;9.202;2022-08-05T02:02:54;28.60;66.80
44182;DHT22;30436;48.888;9.202;2022-08-05T02:05:26;28.60;67.00
44182;DHT22;30436;48.888;9.202;2022-08-05T02:07:52;28.70;66.10
44182;DHT22;30436;48.888;9.202;2022-08-05T02:10:18;28.70;66.10
44182;DHT22;30436;48.888;9.202;2022-08-05T02:13:07;28.70;66.90
44182;DHT22;30436;48.888;9.202;2022-08-05T02:15:43;28.70;69.60
44182;DHT22;30436;48.888;9.202;2022-08-05T02:18:33;28.70;66.40
44182;DHT22;30436;48.888;9.202;2022-08-05T02:21:14;28.60;67.60
44182;DHT22;30436;48.888;9.202;2022-08-05T02:23:54;28.70;69.20
44182;DHT22;30436;48.888;9.202;2022-08-05T02:26:26;28.70;69.20
44182;DHT22;30436;48.888;9.202;2022-08-05T02:28:58;28.70;69.50
44182;DHT22;30436;48.888;9.202;2022-08-05T02:31:29;28.70;68.40
44182;DHT22;30436;48.888;9.202;2022-08-05T02:33:58;28.70;69.10
44182;DHT22;30436;48.888;9.202;2022-08-05T02:36:27;28.60;68.00
44182;DHT22;30436;48.888;9.202;2022-08-05T02:38:55;28.60;68.70
44182;DHT22;30436;48.888;9.202;2022-08-05T02:41:23;28.60;70.40
44182;DHT22;30436;48.888;9.202;2022-08-05T02:43:51;28.60;70.40
44182;DHT22;30436;48.888;9.202;2022-08-05T02:46:18;28.60;70.20
44182;DHT22;30436;48.888;9.202;2022-08-05T02:48:45;28.60;69.70
44182;DHT22;30436;48.888;9.202;2022-08-05T02:51:13;28.50;69.10
44182;DHT22;30436;48.888;9.202;2022-08-05T02:53:40;28.50;71.80
44182;DHT22;30436;48.888;9.202;2022-08-05T02:56:08;28.50;69.80
44182;DHT22;30436;48.888;9.202;2022-08-05T02:58:38;28.50;68.50
44182;DHT22;30436;48.888;9.202;2022-08-05T03:01:04;28.50;70.30
44182;DHT22;30436;48.888;9.202;2022-08-05T03:03:31;28.50;70.80
44182;DHT22;30436;48.888;9.202;2022-08-05T03:05:57;28.40;69.70
44182;DHT22;30436;48.888;9.202;2022-08-05T03:08:24;28.40;70.90
44182;DHT22;30436;48.888;9.202;2022-08-05T03:10:50;28.40;70.90
44182;DHT22;30436;48.888;9.202;2022-08-05T03:13:16;28.30;72.00
44182;DHT22;30436;48.888;9.202;2022-08-05T03:15:44;28.30;70.40
44182;DHT22;30436;48.888;9.202;2022-08-05T03:18:10;28.20;70.70
44182;DHT22;30436;48.888;9.202;2022-08-05T03:20:36;28.20;73.60
44182;DHT22;30436;48.888;9.202;2022-08-05T03:23:05;28.30;72.80
44182;DHT22;30436;48.888;9.202;2022-08-05T03:25:33;28.20;72.50
44182;DHT22;30436;48.888;9.202;2022-08-05T03:27:59;28.20;71.10
44182;DHT22;30436;48.888;9.202;2022-08-05T03:30:27;28.30;71.40
44182;DHT22;30436;48.888;9.202;2022-08-05T03:32:53;28.20;72.60
44182;DHT22;30436;48.888;9.202;2022-08-05T03:35:20;28.20;71.20
44182;DHT22;30436;48.888;9.202;2022-08-05T03:37:46;28.20;70.20
44182;DHT22;30436;48.888;9.202;2022-08-05T03:40:11;28.10;71.30
44182;DHT22;30436;48.888;9.202;2022-08-05T03:42:37;28.00;71.00
44182;DHT22;30436;48.888;9.202;2022-08-05T03:45:06;27.80;73.00
44182;DHT22;30436;48.888;9.202;2022-08-05T03:47:32;27.70;73.80
44182;DHT22;30436;48.888;9.202;2022-08-05T03:49:57;27.80;72.00
44182;DHT22;30436;48.888;9.202;2022-08-05T03:52:30;27.70;71.50
44182;DHT22;30436;48.888;9.202;2022-08-05T03:55:00;27.40;71.70
44182;DHT22;30436;48.888;9.202;2022-08-05T03:57:29;27.40;76.50
44182;DHT22;30436;48.888;9.202;2022-08-05T04:00:11;27.40;74.60
44182;DHT22;30436;48.888;9.202;2022-08-05T04:02:40;27.40;75.50
44182;DHT22;30436;48.888;9.202;2022-08-05T04:05:11;27.40;75.70
44182;DHT22;30436;48.888;9.202;2022-08-05T04:07:40;27.40;72.70
44182;DHT22;30436;48.888;9.202;2022-08-05T04:10:07;27.50;75.20
44182;DHT22;30436;48.888;9.202;2022-08-05T04:12:34;27.50;73.40
44182;DHT22;30436;48.888;9.202;2022-08-05T04:15:00;27.30;72.90
44182;DHT22;30436;48.888;9.202;2022-08-05T04:17:26;27.20;76.30
44182;DHT22;30436;48.888;9.202;2022-08-05T04:19:52;27.20;73.40
44182;DHT22;30436;48.888;9.202;2022-08-05T04:22:18;27.20;75.60
44182;DHT22;30436;48.888;9.202;2022-08-05T04:24:44;27.30;75.60
44182;DHT22;30436;48.888;9.202;2022-08-05T04:27:11;27.30;77.00
44182;DHT22;30436;48.888;9.202;2022-08-05T04:29:37;27.20;75.70
44182;DHT22;30436;48.888;9.202;2022-08-05T04:32:04;27.20;75.20
44182;DHT22;30436;48.888;9.202;2022-08-05T04:34:30;27.20;76.70
44182;DHT22;30436;48.888;9.202;2022-08-05T04:36:56;27.30;76.90
44182;DHT22;30436;48.888;9.202;2022-08-05T04:39:21;27.30;76.40
44182;DHT22;30436;48.888;9.202;2022-08-05T04:41:47;27.30;76.30
44182;DHT22;30436;48.888;9.202;2022-08-05T04:44:13;27.30;79.20
44182;DHT22;30436;48.888;9.202;2022-08-05T04:46:39;27.30;77.50
44182;DHT22;30436;48.888;9.202;2022-08-05T04:49:05;27.00;76.00
44182;DHT22;30436;48.888;9.202;2022-08-05T04:51:31;27.20;77.70
44182;DHT22;30436;48.888;9.202;2022-08-05T04:53:58;27.20;77.30
44182;DHT22;30436;48.888;9.202;2022-08-05T04:56:24;27.10;78.30
44182;DHT22;30436;48.888;9.202;2022-08-05T04:58:50;27.00;77.30
44182;DHT22;30436;48.888;9.202;2022-08-05T05:01:15;26.90;77.60
44182;DHT22;30436;48.888;9.202;2022-08-05T05:03:41;26.90;78.20
44182;DHT22;30436;48.888;9.202;2022-08-05T05:06:11;27.00;78.50
44182;DHT22;30436;48.888;9.202;2022-08-05T05:08:38;27.00;78.40
44182;DHT22;30436;48.888;9.202;2022-08-05T05:11:04;26.90;78.30
44182;DHT22;30436;48.888;9.202;2022-08-05T05:13:30;26.90;78.10
44182;DHT22;30436;48.888;9.202;2022-08-05T05:15:56;26.90;79.90
44182;DHT22;30436;48.888;9.202;2022-08-05T05:18:21;26.90;78.80
44182;DHT22;30436;48.888;9.202;2022-08-05T05:20:47;26.90;80.30
44182;DHT22;30436;48.888;9.202;2022-08-05T05:23:13;26.80;78.50
44182;DHT22;30436;48.888;9.202;2022-08-05T05:25:40;26.90;80.20
44182;DHT22;30436;48.888;9.202;2022-08-05T05:28:10;26.90;79.10
44182;DHT22;30436;48.888;9.202;2022-08-05T05:30:37;26.90;80.30
44182;DHT22;30436;48.888;9.202;2022-08-05T05:33:04;26.90;79.80
44182;DHT22;30436;48.888;9.202;2022-08-05T05:35:31;27.00;79.80
44182;DHT22;30436;48.888;9.202;2022-08-05T05:37:58;27.00;81.40
44182;DHT22;30436;48.888;9.202;2022-08-05T05:40:32;27.00;86.00
44182;DHT22;30436;48.888;9.202;2022-08-05T05:42:58;27.00;83.30
44182;DHT22;30436;48.888;9.202;2022-08-05T05:45:24;27.00;81.50
44182;DHT22;30436;48.888;9.202;2022-08-05T05:47:51;27.00;82.70
44182;DHT22;30436;48.888;9.202;2022-08-05T05:50:17;26.90;82.20
44182;DHT22;30436;48.888;9.202;2022-08-05T05:52:45;26.90;81.90
44182;DHT22;30436;48.888;9.202;2022-08-05T05:55:13;26.90;83.40
44182;DHT22;30436;48.888;9.202;2022-08-05T05:57:40;26.80;82.60
44182;DHT22;30436;48.888;9.202;2022-08-05T06:00:14;26.80;80.80
44182;DHT22;30436;48.888;9.202;2022-08-05T06:02:41;26.90;81.50
44182;DHT22;30436;48.888;9.202;2022-08-05T06:05:09;26.90;81.00
44182;DHT22;30436;48.888;9.202;2022-08-05T06:07:35;27.00;80.80
44182;DHT22;30436;48.888;9.202;2022-08-05T06:10:01;27.10;81.10
44182;DHT22;30436;48.888;9.202;2022-08-05T06:12:27;27.30;80.90
44182;DHT22;30436;48.888;9.202;2022-08-05T06:14:52;27.30;81.60
44182;DHT22;30436;48.888;9.202;2022-08-05T06:17:18;27.20;79.70
44182;DHT22;30436;48.888;9.202;2022-08-05T06:19:44;27.30;79.70
44182;DHT22;30436;48.888;9.202;2022-08-05T06:22:10;27.30;80.50
44182;DHT22;30436;48.888;9.202;2022-08-05T06:24:41;27.40;78.50
44182;DHT22;30436;48.888;9.202;2022-08-05T06:27:06;27.50;78.50
44182;DHT22;30436;48.888;9.202;2022-08-05T06:29:32;27.60;78.80
44182;DHT22;30436;48.888;9.202;2022-08-05T06:31:58;27.80;77.90
44182;DHT22;30436;48.888;9.202;2022-08-05T06:34:23;27.90;80.20
44182;DHT22;30436;48.888;9.202;2022-08-05T06:36:49;27.90;78.90
44182;DHT22;30436;48.888;9.202;2022-08-05T06:39:15;28.10;79.00
44182;DHT22;30436;48.888;9.202;2022-08-05T06:41:40;28.10;78.50
44182;DHT22;30436;48.888;9.202;2022-08-05T06:44:06;28.20;76.60
44182;DHT22;30436;48.888;9.202;2022-08-05T06:46:31;28.20;76.30
44182;DHT22;30436;48.888;9.202;2022-08-05T06:48:58;28.30;76.90
44182;DHT22;30436;48.888;9.202;2022-08-05T06:51:23;28.40;79.10
44182;DHT22;30436;48.888;9.202;2022-08-05T06:53:49;28.60;77.10
44182;DHT22;30436;48.888;9.202;2022-08-05T06:56:15;28.50;76.40
44182;DHT22;30436;48.888;9.202;2022-08-05T06:58:40;28.50;76.40
44182;DHT22;30436;48.888;9.202;2022-08-05T07:01:06;28.50;76.30
44182;DHT22;30436;48.888;9.202;2022-08-05T07:03:32;28.60;76.80
44182;DHT22;30436;48.888;9.202;2022-08-05T07:05:58;28.60;75.70
44182;DHT22;30436;48.888;9.202;2022-08-05T07:08:26;28.60;74.90
44182;DHT22;30436;48.888;9.202;2022-08-05T07:10:53;28.60;76.50
44182;DHT22;30436;48.888;9.202;2022-08-05T07:13:22;28.60;75.20
44182;DHT22;30436;48.888;9.202;2022-08-05T07:16:06;28.50;74.80
44182;DHT22;30436;48.888;9.202;2022-08-05T07:18:51;28.70;74.80
44182;DHT22;30436;48.888;9.202;2022-08-05T07:21:17;28.70;75.40
44182;DHT22;30436;48.888;9.202;2022-08-05T07:23:42;28.70;75.20
44182;DHT22;30436;48.888;9.202;2022-08-05T07:26:08;28.70;74.70
44182;DHT22;30436;48.888;9.202;2022-08-05T07:28:34;28.80;75.20
44182;DHT22;30436;48.888;9.202;2022-08-05T07:30:59;28.80;74.70
44182;DHT22;30436;48.888;9.202;2022-08-05T07:33:25;28.80;74.40
44182;DHT22;30436;48.888;9.202;2022-08-05T07:35:50;28.90;72.80
44182;DHT22;30436;48.888;9.202;2022-08-05T07:38:17;28.90;73.00
44182;DHT22;30436;48.888;9.202;2022-08-05T07:40:43;28.90;73.60
44182;DHT22;30436;48.888;9.202;2022-08-05T07:43:10;29.10;73.50
44182;DHT22;30436;48.888;9.202;2022-08-05T07:45:36;29.10;72.10
44182;DHT22;30436;48.888;9.202;2022-08-05T07:48:02;29.30;72.50
44182;DHT22;30436;48.888;9.202;2022-08-05T07:50:28;29.20;70.80
44182;DHT22;30436;48.888;9.202;2022-08-05T07:52:53;29.20;69.30
44182;DHT22;30436;48.888;9.202;2022-08-05T07:57:50;29.30;66.80
44182;DHT22;30436;48.888;9.202;2022-08-05T08:00:16;29.50;67.10
44182;DHT22;30436;48.888;9.202;2022-08-05T08:02:43;29.40;67.60
44182;DHT22;30436;48.888;9.202;2022-08-05T08:05:09;29.50;66.90
44182;DHT22;30436;48.888;9.202;2022-08-05T08:07:35;29.60;67.10
44182;DHT22;30436;48.888;9.202;2022-08-05T08:10:01;29.70;65.90
44182;DHT22;30436;48.888;9.202;2022-08-05T08:12:27;29.80;66.10
44182;DHT22;30436;48.888;9.202;2022-08-05T08:14:53;29.80;66.50
44182;DHT22;30436;48.888;9.202;2022-08-05T08:17:18;29.90;66.50
44182;DHT22;30436;48.888;9.202;2022-08-05T08:19:44;29.80;66.60
44182;DHT22;30436;48.888;9.202;2022-08-05T08:22:10;29.90;65.80
44182;DHT22;30436;48.888;9.202;2022-08-05T08:24:36;29.90;66.90
44182;DHT22;30436;48.888;9.202;2022-08-05T08:27:03;30.00;66.40
44182;DHT22;30436;48.888;9.202;2022-08-05T08:29:29;30.10;65.00
44182;DHT22;30436;48.888;9.202;2022-08-05T08:31:55;30.10;64.50
44182;DHT22;30436;48.888;9.202;2022-08-05T08:34:23;30.20;64.90
44182;DHT22;30436;48.888;9.202;2022-08-05T08:36:50;30.30;65.10
44182;DHT22;30436;48.888;9.202;2022-08-05T08:39:16;30.40;65.60
44182;DHT22;30436;48.888;9.202;2022-08-05T08:41:53;30.50;64.70
44182;DHT22;30436;48.888;9.202;2022-08-05T08:44:23;30.50;63.30
44182;DHT22;30436;48.888;9.202;2022-08-05T08:46:50;30.50;65.20
44182;DHT22;30436;48.888;9.202;2022-08-05T08:49:18;30.60;64.80
44182;DHT22;30436;48.888;9.202;2022-08-05T08:51:48;30.50;62.50
44182;DHT22;30436;48.888;9.202;2022-08-05T08:54:18;30.50;64.60
44182;DHT22;30436;48.888;9.202;2022-08-05T08:56:43;30.70;64.70
44182;DHT22;30436;48.888;9.202;2022-08-05T08:59:10;30.80;63.80
44182;DHT22;30436;48.888;9.202;2022-08-05T09:01:36;30.80;62.70
44182;DHT22;30436;48.888;9.202;2022-08-05T09:04:02;30.80;61.70
44182;DHT22;30436;48.888;9.202;2022-08-05T09:06:29;30.90;62.70
44182;DHT22;30436;48.888;9.202;2022-08-05T09:08:57;31.10;63.00
44182;DHT22;30436;48.888;9.202;2022-08-05T09:11:24;31.20;62.70
44182;DHT22;30436;48.888;9.202;2022-08-05T09:13:50;31.30;59.70
44182;DHT22;30436;48.888;9.202;2022-08-05T09:16:16;31.40;61.60
44182;DHT22;30436;48.888;9.202;2022-08-05T09:18:41;31.40;59.60
44182;DHT22;30436;48.888;9.202;2022-08-05T09:21:09;31.40;58.90
44182;DHT22;30436;48.888;9.202;2022-08-05T09:23:34;31.40;60.70
44182;DHT22;30436;48.888;9.202;2022-08-05T09:26:13;31.40;60.00
44182;DHT22;30436;48.888;9.202;2022-08-05T09:28:42;31.60;60.10
44182;DHT22;30436;48.888;9.202;2022-08-05T09:31:12;31.80;59.60
44182;DHT22;30436;48.888;9.202;2022-08-05T09:33:59;31.90;59.60
44182;DHT22;30436;48.888;9.202;2022-08-05T09:36:49;32.10;58.50
44182;DHT22;30436;48.888;9.202;2022-08-05T09:39:17;32.10;58.50
44182;DHT22;30436;48.888;9.202;2022-08-05T09:42:01;32.30;58.40
44182;DHT22;30436;48.888;9.202;2022-08-05T09:44:44;32.30;57.80
44182;DHT22;30436;48.888;9.202;2022-08-05T09:47:22;32.00;57.40
44182;DHT22;30436;48.888;9.202;2022-08-05T09:49:53;32.20;58.30
44182;DHT22;30436;48.888;9.202;2022-08-05T09:52:27;32.50;58.10
44182;DHT22;30436;48.888;9.202;2022-08-05T09:57:37;32.00;56.10
44182;DHT22;30436;48.888;9.202;2022-08-05T10:02:51;32.80;56.30
44182;DHT22;30436;48.888;9.202;2022-08-05T10:05:23;32.90;55.90
44182;DHT22;30436;48.888;9.202;2022-08-05T10:07:51;33.00;53.60
44182;DHT22;30436;48.888;9.202;2022-08-05T10:10:25;32.70;54.50
44182;DHT22;30436;48.888;9.202;2022-08-05T10:12:56;32.90;55.10
44182;DHT22;30436;48.888;9.202;2022-08-05T10:15:24;33.20;56.00
44182;DHT22;30436;48.888;9.202;2022-08-05T10:20:45;33.70;54.90
44182;DHT22;30436;48.888;9.202;2022-08-05T10:23:14;33.90;54.30
44182;DHT22;30436;48.888;9.202;2022-08-05T10:25:41;34.10;55.40
44182;DHT22;30436;48.888;9.202;2022-08-05T10:28:06;34.30;52.60
44182;DHT22;30436;48.888;9.202;2022-08-05T10:30:34;34.50;53.20
44182;DHT22;30436;48.888;9.202;2022-08-05T10:33:01;34.60;52.40
44182;DHT22;30436;48.888;9.202;2022-08-05T10:35:27;34.70;51.60
44182;DHT22;30436;48.888;9.202;2022-08-05T10:37:53;34.40;52.50
44182;DHT22;30436;48.888;9.202;2022-08-05T10:42:53;34.50;52.30
44182;DHT22;30436;48.888;9.202;2022-08-05T10:45:28;34.60;51.50
44182;DHT22;30436;48.888;9.202;2022-08-05T10:47:54;34.60;54.20
44182;DHT22;30436;48.888;9.202;2022-08-05T10:50:23;34.80;53.30
44182;DHT22;30436;48.888;9.202;2022-08-05T10:52:53;34.90;53.80
44182;DHT22;30436;48.888;9.202;2022-08-05T10:55:22;35.10;52.60
44182;DHT22;30436;48.888;9.202;2022-08-05T10:58:06;35.20;51.80
44182;DHT22;30436;48.888;9.202;2022-08-05T11:00:33;35.30;53.10
44182;DHT22;30436;48.888;9.202;2022-08-05T11:05:32;35.20;52.50
44182;DHT22;30436;48.888;9.202;2022-08-05T11:08:01;35.00;52.00
44182;DHT22;30436;48.888;9.202;2022-08-05T11:10:28;35.10;51.50
44182;DHT22;30436;48.888;9.202;2022-08-05T11:12:56;35.70;50.80
44182;DHT22;30436;48.888;9.202;2022-08-05T11:15:27;35.60;51.20
44182;DHT22;30436;48.888;9.202;2022-08-05T11:18:26;35.70;51.10
44182;DHT22;30436;48.888;9.202;2022-08-05T11:20:53;35.90;50.00
44182;DHT22;30436;48.888;9.202;2022-08-05T11:23:31;36.00;50.50
44182;DHT22;30436;48.888;9.202;2022-08-05T11:28:45;36.00;50.40
44182;DHT22;30436;48.888;9.202;2022-08-05T11:33:53;35.70;50.30
44182;DHT22;30436;48.888;9.202;2022-08-05T11:39:04;36.10;48.80
44182;DHT22;30436;48.888;9.202;2022-08-05T11:41:30;36.20;50.10
44182;DHT22;30436;48.888;9.202;2022-08-05T11:46:32;36.30;49.90
44182;DHT22;30436;48.888;9.202;2022-08-05T11:49:03;36.40;50.20
44182;DHT22;30436;48.888;9.202;2022-08-05T11:51:29;36.50;50.80
44182;DHT22;30436;48.888;9.202;2022-08-05T11:53:55;36.60;48.90
44182;DHT22;30436;48.888;9.202;2022-08-05T11:56:24;36.60;48.70
44182;DHT22;30436;48.888;9.202;2022-08-05T11:58:50;36.60;48.70
44182;DHT22;30436;48.888;9.202;2022-08-05T12:01:19;36.60;48.60
44182;DHT22;30436;48.888;9.202;2022-08-05T12:06:11;36.50;49.30
44182;DHT22;30436;48.888;9.202;2022-08-05T12:11:10;36.80;49.00
44182;DHT22;30436;48.888;9.202;2022-08-05T12:13:39;36.80;48.20
44182;DHT22;30436;48.888;9.202;2022-08-05T12:16:06;36.90;47.60
44182;DHT22;30436;48.888;9.202;2022-08-05T12:18:33;36.90;48.40
44182;DHT22;30436;48.888;9.202;2022-08-05T12:21:12;36.90;47.40
44182;DHT22;30436;48.888;9.202;2022-08-05T12:23:38;36.90;48.10
44182;DHT22;30436;48.888;9.202;2022-08-05T12:26:05;36.90;48.00
44182;DHT22;30436;48.888;9.202;2022-08-05T12:28:34;36.90;48.00
44182;DHT22;30436;48.888;9.202;2022-08-05T12:31:00;36.90;48.10
44182;DHT22;30436;48.888;9.202;2022-08-05T12:33:26;36.80;48.30
44182;DHT22;30436;48.888;9.202;2022-08-05T12:35:54;36.70;47.50
44182;DHT22;30436;48.888;9.202;2022-08-05T12:38:21;36.70;47.70
44182;DHT22;30436;48.888;9.202;2022-08-05T12:40:48;36.50;47.50
44182;DHT22;30436;48.888;9.202;2022-08-05T12:43:15;36.20;47.90
44182;DHT22;30436;48.888;9.202;2022-08-05T12:45:54;36.10;48.70
44182;DHT22;30436;48.888;9.202;2022-08-05T12:48:23;35.90;47.80
44182;DHT22;30436;48.888;9.202;2022-08-05T12:51:25;35.60;47.40
44182;DHT22;30436;48.888;9.202;2022-08-05T12:54:00;35.80;47.70
44182;DHT22;30436;48.888;9.202;2022-08-05T12:56:28;35.90;48.90
44182;DHT22;30436;48.888;9.202;2022-08-05T12:59:15;35.80;49.00
44182;DHT22;30436;48.888;9.202;2022-08-05T13:01:43;35.80;48.70
44182;DHT22;30436;48.888;9.202;2022-08-05T13:04:10;35.90;49.20
44182;DHT22;30436;48.888;9.202;2022-08-05T13:06:40;36.00;50.00
44182;DHT22;30436;48.888;9.202;2022-08-05T13:09:08;36.20;50.80
44182;DHT22;30436;48.888;9.202;2022-08-05T13:11:38;36.20;48.30
44182;DHT22;30436;48.888;9.202;2022-08-05T13:14:15;36.10;49.60
44182;DHT22;30436;48.888;9.202;2022-08-05T13:16:53;36.20;49.30
44182;DHT22;30436;48.888;9.202;2022-08-05T13:19:21;36.20;49.10
44182;DHT22;30436;48.888;9.202;2022-08-05T13:21:47;36.00;48.90
44182;DHT22;30436;48.888;9.202;2022-08-05T13:24:13;35.80;51.00
44182;DHT22;30436;48.888;9.202;2022-08-05T13:26:39;35.70;49.60
44182;DHT22;30436;48.888;9.202;2022-08-05T13:29:05;35.60;50.70
44182;DHT22;30436;48.888;9.202;2022-08-05T13:31:31;35.40;50.20
44182;DHT22;30436;48.888;9.202;2022-08-05T13:33:56;35.40;49.50
44182;DHT22;30436;48.888;9.202;2022-08-05T13:36:22;35.40;51.40
44182;DHT22;30436;48.888;9.202;2022-08-05T13:38:48;35.30;50.60
44182;DHT22;30436;48.888;9.202;2022-08-05T13:41:14;35.20;51.00
44182;DHT22;30436;48.888;9.202;2022-08-05T13:43:40;35.10;51.50
44182;DHT22;30436;48.888;9.202;2022-08-05T13:46:08;34.90;51.00
44182;DHT22;30436;48.888;9.202;2022-08-05T13:48:36;34.90;51.20
44182;DHT22;30436;48.888;9.202;2022-08-05T13:51:06;34.80;51.20
44182;DHT22;30436;48.888;9.202;2022-08-05T13:53:32;34.60;51.30
44182;DHT22;30436;48.888;9.202;2022-08-05T13:55:58;34.60;51.90
44182;DHT22;30436;48.888;9.202;2022-08-05T13:58:24;34.60;51.10
44182;DHT22;30436;48.888;9.202;2022-08-05T14:00:50;34.70;52.00
44182;DHT22;30436;48.888;9.202;2022-08-05T14:03:15;34.70;51.80
44182;DHT22;30436;48.888;9.202;2022-08-05T14:05:41;34.70;52.10
44182;DHT22;30436;48.888;9.202;2022-08-05T14:08:06;34.70;51.50
44182;DHT22;30436;48.888;9.202;2022-08-05T14:10:32;34.60;51.60
44182;DHT22;30436;48.888;9.202;2022-08-05T14:12:59;34.50;51.90
44182;DHT22;30436;48.888;9.202;2022-08-05T14:15:26;34.40;52.20
44182;DHT22;30436;48.888;9.202;2022-08-05T14:17:52;34.20;52.60
44182;DHT22;30436;48.888;9.202;2022-08-05T14:20:17;34.20;52.20
44182;DHT22;30436;48.888;9.202;2022-08-05T14:22:43;34.10;52.10
44182;DHT22;30436;48.888;9.202;2022-08-05T14:25:09;34.10;52.00
44182;DHT22;30436;48.888;9.202;2022-08-05T14:27:35;34.20;52.70
44182;DHT22;30436;48.888;9.202;2022-08-05T14:30:02;34.20;52.80
44182;DHT22;30436;48.888;9.202;2022-08-05T14:32:28;34.30;52.60
44182;DHT22;30436;48.888;9.202;2022-08-05T14:34:55;34.20;52.70
44182;DHT22;30436;48.888;9.202;2022-08-05T14:37:21;33.90;53.60
44182;DHT22;30436;48.888;9.202;2022-08-05T14:39:46;33.90;54.20
44182;DHT22;30436;48.888;9.202;2022-08-05T14:42:12;34.00;55.10
44182;DHT22;30436;48.888;9.202;2022-08-05T14:44:38;33.90;54.60
44182;DHT22;30436;48.888;9.202;2022-08-05T14:47:04;33.80;54.80
44182;DHT22;30436;48.888;9.202;2022-08-05T14:49:30;34.00;55.30
44182;DHT22;30436;48.888;9.202;2022-08-05T14:51:55;33.90;55.40
44182;DHT22;30436;48.888;9.202;2022-08-05T14:54:21;34.10;55.50
44182;DHT22;30436;48.888;9.202;2022-08-05T14:56:47;34.10;55.10
44182;DHT22;30436;48.888;9.202;2022-08-05T14:59:13;34.20;55.30
44182;DHT22;30436;48.888;9.202;2022-08-05T15:01:39;34.20;55.80
44182;DHT22;30436;48.888;9.202;2022-08-05T15:04:05;34.00;55.90
44182;DHT22;30436;48.888;9.202;2022-08-05T15:06:35;34.00;56.80
44182;DHT22;30436;48.888;9.202;2022-08-05T15:09:00;33.90;56.40
44182;DHT22;30436;48.888;9.202;2022-08-05T15:11:26;33.90;56.50
44182;DHT22;30436;48.888;9.202;2022-08-05T15:13:52;33.80;56.40
44182;DHT22;30436;48.888;9.202;2022-08-05T15:16:18;33.80;56.70
44182;DHT22;30436;48.888;9.202;2022-08-05T15:18:43;33.70;56.90
44182;DHT22;30436;48.888;9.202;2022-08-05T15:21:09;33.70;56.90
44182;DHT22;30436;48.888;9.202;2022-08-05T15:23:34;33.60;56.90
44182;DHT22;30436;48.888;9.202;2022-08-05T15:26:00;33.60;56.60
44182;DHT22;30436;48.888;9.202;2022-08-05T15:28:26;33.70;57.00
44182;DHT22;30436;48.888;9.202;2022-08-05T15:30:51;33.70;56.40
44182;DHT22;30436;48.888;9.202;2022-08-05T15:33:17;33.90;56.80
44182;DHT22;30436;48.888;9.202;2022-08-05T15:35:43;33.80;57.20
44182;DHT22;30436;48.888;9.202;2022-08-05T15:38:08;33.80;56.80
44182;DHT22;30436;48.888;9.202;2022-08-05T15:40:34;33.70;56.70
44182;DHT22;30436;48.888;9.202;2022-08-05T15:43:00;33.70;57.40
44182;DHT22;30436;48.888;9.202;2022-08-05T15:45:25;33.60;57.20
44182;DHT22;30436;48.888;9.202;2022-08-05T15:47:51;33.50;57.60
44182;DHT22;30436;48.888;9.202;2022-08-05T15:50:17;33.30;57.20
44182;DHT22;30436;48.888;9.202;2022-08-05T15:52:42;33.20;57.40
44182;DHT22;30436;48.888;9.202;2022-08-05T15:55:10;33.10;58.20
44182;DHT22;30436;48.888;9.202;2022-08-05T15:57:36;32.90;57.90
44182;DHT22;30436;48.888;9.202;2022-08-05T16:00:04;32.90;58.60
44182;DHT22;30436;48.888;9.202;2022-08-05T16:02:30;32.80;58.80
44182;DHT22;30436;48.888;9.202;2022-08-05T16:04:55;32.60;58.70
44182;DHT22;30436;48.888;9.202;2022-08-05T16:07:21;32.50;59.30
44182;DHT22;30436;48.888;9.202;2022-08-05T16:09:47;32.50;59.60